Time,TemperatureF,DewpointF,PressureIn,WindDirection,WindDirectionDegrees,WindSpeedMPH,WindSpeedGustMPH,Humidity,HourlyPrecipIn,Conditions,Clouds,dailyrainin,SoftwareType,DateUTC
2013-12-08 00:00:00,34.0,27.2,28.33,ENE,68,3.0,3.0,76,0.00,CLR,,0.00,WeatherDisplay:10.37,2013-12-08 05:00:00,
2013-12-08 00:10:00,34.3,27.6,28.30,NE,47,3.0,5.0,76,0.00,CLR,,0.00,WeatherDisplay:10.37,2013-12-08 05:10:00,
2013-12-08 00:20:00,34.3,27.2,28.30,NNE,24,5.0,5.0,75,0.00,CLR,,0.00,WeatherDisplay:10.37,2013-12-08 05:20:00,
2013-12-08 00:30:00,34.5,26.8,28.30,NNE,22,5.0,5.0,73,0.00,CLR,,0.00,WeatherDisplay:10.37,2013-12-08 05:30:00,
2013-12-08 00:40:00,34.5,26.8,28.30,NNE,22,5.0,5.0,73,0.00,CLR,,0.00,WeatherDisplay:10.37,2013-12-08 05:40:00,
2013-12-08 00:50:00,34.7,26.9,28.30,NNE,22,5.0,5.0,73,0.00,CLR,,0.00,WeatherDisplay:10.37,2013-12-08 05:50:00,
2013-12-08 01:00:00,34.9,27.1,28.30,NNE,22,5.0,5.0,73,0.00,CLR,,0.00,WeatherDisplay:10.37,2013-12-08 06:00:00,
2013-12-08 01:10:00,35.1,26.9,28.27,NNE,22,5.0,5.0,72,0.00,CLR,,0.00,WeatherDisplay:10.37,2013-12-08 06:10:00,
2013-12-08 01:20:00,35.1,26.3,28.27,NNE,22,5.0,5.0,70,0.00,CLR,,0.00,WeatherDisplay:10.37,2013-12-08 06:20:00,
2013-12-08 01:30:00,35.4,26.6,28.27,NNE,22,5.0,5.0,70,0.00,CLR,,0.00,WeatherDisplay:10.37,2013-12-08 06:30:00,
2013-12-08 01:40:00,35.5,26.7,28.27,NNE,22,5.0,5.0,70,0.00,CLR,,0.00,WeatherDisplay:10.37,2013-12-08 06:40:00,
2013-12-08 01:50:00,35.6,26.8,28.27,NNE,22,3.0,5.0,70,0.00,CLR,,0.00,WeatherDisplay:10.37,2013-12-08 06:50:00,
2013-12-08 02:00:00,35.6,27.1,28.27,NNE,22,2.0,5.0,71,0.00,CLR,,0.00,WeatherDisplay:10.37,2013-12-08 07:00:00,
2013-12-08 02:10:00,35.7,26.2,28.24,NNE,22,2.0,3.0,68,0.00,CLR,,0.00,WeatherDisplay:10.37,2013-12-08 07:10:00,
2013-12-08 02:20:00,35.8,26.2,28.24,NNE,22,2.0,3.0,68,0.00,CLR,,0.00,WeatherDisplay:10.37,2013-12-08 07:20:00,
2013-12-08 02:30:00,36.0,26.8,28.27,NNE,22,2.0,3.0,69,0.00,CLR,,0.00,WeatherDisplay:10.37,2013-12-08 07:30:00,
2013-12-08 02:40:00,36.1,26.2,28.27,NNE,22,2.0,3.0,67,0.00,CLR,,0.00,WeatherDisplay:10.37,2013-12-08 07:40:00,
2013-12-08 02:50:00,36.1,25.9,28.27,NNE,22,2.0,3.0,66,0.00,CLR,,0.00,WeatherDisplay:10.37,2013-12-08 07:50:00,
2013-12-08 03:00:00,36.3,26.4,28.24,NNE,22,2.0,3.0,67,0.00,CLR,,0.00,WeatherDisplay:10.37,2013-12-08 08:00:00,
2013-12-08 03:10:00,36.5,26.6,28.24,NNE,22,2.0,3.0,67,0.00,CLR,,0.00,WeatherDisplay:10.37,2013-12-08 08:10:00,
2013-12-08 03:20:00,36.7,26.4,28.24,NNE,22,2.0,3.0,66,0.00,CLR,,0.00,WeatherDisplay:10.37,2013-12-08 08:20:00,
2013-12-08 03:30:00,36.7,26.7,28.24,NNE,22,2.0,3.0,67,0.00,CLR,,0.00,WeatherDisplay:10.37,2013-12-08 08:30:00,
2013-12-08 03:40:00,36.7,27.1,28.24,NNE,22,3.0,3.0,68,0.00,CLR,,0.00,WeatherDisplay:10.37,2013-12-08 08:40:00,
2013-12-08 03:50:00,36.9,27.3,28.24,NNE,22,3.0,3.0,68,0.00,CLR,,0.00,WeatherDisplay:10.37,2013-12-08 08:50:00,
2013-12-08 04:00:00,36.9,27.6,28.24,NNE,22,3.0,3.0,69,0.00,CLR,,0.00,WeatherDisplay:10.37,2013-12-08 09:00:00,
2013-12-08 04:10:00,36.9,28.0,28.24,NNE,22,3.0,3.0,70,0.00,CLR,,0.00,WeatherDisplay:10.37,2013-12-08 09:10:00,
2013-12-08 04:20:00,36.9,28.0,28.24,NNE,22,3.0,3.0,70,0.00,CLR,,0.00,WeatherDisplay:10.37,2013-12-08 09:20:00,
2013-12-08 04:30:00,36.9,28.3,28.21,NNE,22,3.0,3.0,71,0.00,CLR,,0.00,WeatherDisplay:10.37,2013-12-08 09:30:00,
2013-12-08 04:40:00,36.9,28.3,28.21,NNE,22,3.0,3.0,71,0.00,CLR,,0.00,WeatherDisplay:10.37,2013-12-08 09:40:00,
2013-12-08 04:50:00,36.9,30.0,28.21,NNE,22,3.0,3.0,76,0.00,CLR,,0.00,WeatherDisplay:10.37,2013-12-08 09:50:00,
2013-12-08 05:00:00,36.9,30.6,28.21,NNE,22,3.0,3.0,78,0.00,CLR,,0.00,WeatherDisplay:10.37,2013-12-08 10:00:00,
2013-12-08 05:10:00,36.9,30.3,28.21,NNE,22,3.0,3.0,77,0.00,CLR,,0.00,WeatherDisplay:10.37,2013-12-08 10:10:00,
2013-12-08 05:20:00,36.9,30.3,28.21,NNE,22,3.0,3.0,77,0.00,CLR,,0.00,WeatherDisplay:10.37,2013-12-08 10:20:00,
2013-12-08 05:30:00,36.9,29.7,28.21,NNE,22,3.0,3.0,75,0.00,CLR,,0.00,WeatherDisplay:10.37,2013-12-08 10:30:00,
2013-12-08 05:40:00,36.9,29.7,28.18,NNE,22,3.0,3.0,75,0.00,CLR,,0.00,WeatherDisplay:10.37,2013-12-08 10:40:00,
2013-12-08 05:50:00,36.9,30.6,28.18,NNE,22,3.0,3.0,78,0.00,CLR,,0.00,WeatherDisplay:10.37,2013-12-08 10:50:00,
2013-12-08 06:00:00,36.7,30.8,28.18,NNE,22,3.0,3.0,79,0.00,CLR,,0.00,WeatherDisplay:10.37,2013-12-08 11:00:00,
2013-12-08 06:10:00,36.9,32.2,28.18,NNE,22,3.0,3.0,83,0.00,CLR,,0.00,WeatherDisplay:10.37,2013-12-08 11:10:00,
2013-12-08 06:20:00,36.9,32.8,28.18,NNE,22,3.0,3.0,85,0.00,CLR,,0.00,WeatherDisplay:10.37,2013-12-08 11:20:00,
2013-12-08 06:30:00,36.9,32.5,28.18,NNE,22,3.0,3.0,84,0.00,CLR,,0.00,WeatherDisplay:10.37,2013-12-08 11:30:00,
2013-12-08 06:40:00,36.9,32.5,28.18,NNE,22,3.0,3.0,84,0.00,CLR,,0.00,WeatherDisplay:10.37,2013-12-08 11:40:00,
2013-12-08 06:50:00,37.0,32.9,28.18,NNE,22,3.0,3.0,85,0.00,CLR,,0.00,WeatherDisplay:10.37,2013-12-08 11:50:00,
2013-12-08 07:00:00,36.9,32.8,28.18,NNE,22,3.0,3.0,85,0.00,CLR,,0.00,WeatherDisplay:10.37,2013-12-08 12:00:00,
2013-12-08 07:10:00,36.9,32.8,28.15,NNE,22,3.0,3.0,85,0.00,CLR,,0.00,WeatherDisplay:10.37,2013-12-08 12:10:00,
2013-12-08 07:20:00,36.9,33.1,28.15,NNE,22,3.0,3.0,86,0.00,CLR,,0.00,WeatherDisplay:10.37,2013-12-08 12:20:00,
2013-12-08 07:30:00,36.9,33.1,28.18,NNE,22,3.0,3.0,86,0.00,CLR,,0.00,WeatherDisplay:10.37,2013-12-08 12:30:00,
2013-12-08 07:40:00,36.9,32.5,28.15,NNE,22,3.0,3.0,84,0.00,CLR,,0.00,WeatherDisplay:10.37,2013-12-08 12:40:00,
2013-12-08 07:50:00,37.0,32.7,28.15,NNE,22,3.0,3.0,84,0.00,CLR,,0.00,WeatherDisplay:10.37,2013-12-08 12:50:00,
2013-12-08 08:00:00,37.2,32.5,28.15,NNE,22,3.0,3.0,83,0.00,CLR,,0.00,WeatherDisplay:10.37,2013-12-08 13:00:00,
2013-12-08 08:10:00,37.4,32.1,28.15,NNE,22,3.0,3.0,81,0.00,CLR,,0.00,WeatherDisplay:10.37,2013-12-08 13:10:00,
2013-12-08 08:20:00,37.6,32.3,28.15,NNE,22,3.0,3.0,81,0.00,CLR,,0.00,WeatherDisplay:10.37,2013-12-08 13:20:00,
2013-12-08 08:30:00,37.6,31.7,28.15,NNE,22,3.0,3.0,79,0.00,CLR,,0.00,WeatherDisplay:10.37,2013-12-08 13:30:00,
2013-12-08 08:40:00,37.8,31.5,28.15,NNE,22,3.0,3.0,78,0.00,CLR,,0.00,WeatherDisplay:10.37,2013-12-08 13:40:00,
2013-12-08 08:50:00,37.9,31.7,28.15,NNE,22,3.0,3.0,78,0.00,CLR,,0.00,WeatherDisplay:10.37,2013-12-08 13:50:00,
2013-12-08 09:00:00,38.2,31.3,28.15,NNE,22,3.0,3.0,76,0.00,CLR,,0.00,WeatherDisplay:10.37,2013-12-08 14:00:00,
2013-12-08 09:10:00,38.6,31.4,28.15,NNE,22,3.0,3.0,75,0.00,CLR,,0.00,WeatherDisplay:10.37,2013-12-08 14:10:00,
2013-12-08 09:20:00,38.8,30.9,28.15,NNE,22,3.0,3.0,73,0.00,CLR,,0.00,WeatherDisplay:10.37,2013-12-08 14:20:00,
2013-12-08 09:30:00,39.0,30.4,28.15,NNE,22,3.0,3.0,71,0.00,CLR,,0.00,WeatherDisplay:10.37,2013-12-08 14:30:00,
2013-12-08 09:40:00,39.2,30.6,28.15,NNE,22,3.0,3.0,71,0.00,CLR,,0.00,WeatherDisplay:10.37,2013-12-08 14:40:00,
2013-12-08 09:50:00,39.2,30.2,28.15,NNE,22,3.0,3.0,70,0.00,CLR,,0.00,WeatherDisplay:10.37,2013-12-08 14:50:00,
2013-12-08 10:00:00,39.4,30.4,28.15,NNE,22,3.0,3.0,70,0.00,CLR,,0.00,WeatherDisplay:10.37,2013-12-08 15:00:00,
2013-12-08 10:10:00,39.4,30.4,28.15,NNE,22,3.0,3.0,70,0.00,CLR,,0.00,WeatherDisplay:10.37,2013-12-08 15:10:00,
2013-12-08 10:20:00,39.6,30.2,28.15,NNE,22,3.0,3.0,69,0.00,CLR,,0.00,WeatherDisplay:10.37,2013-12-08 15:20:00,
2013-12-08 10:30:00,39.7,30.0,28.15,NNE,22,3.0,3.0,68,0.00,CLR,,0.00,WeatherDisplay:10.37,2013-12-08 15:30:00,
2013-12-08 10:40:00,40.1,30.3,28.15,NNE,22,3.0,3.0,68,0.00,CLR,,0.00,WeatherDisplay:10.37,2013-12-08 15:40:00,
2013-12-08 10:50:00,40.3,29.5,28.15,NNE,22,3.0,3.0,65,0.00,CLR,,0.00,WeatherDisplay:10.37,2013-12-08 15:50:00,
2013-12-08 11:00:00,40.3,29.8,28.15,NNE,22,3.0,3.0,66,0.00,CLR,,0.00,WeatherDisplay:10.37,2013-12-08 16:00:00,
2013-12-08 11:10:00,40.6,30.5,28.15,NNE,22,3.0,3.0,67,0.00,CLR,,0.00,WeatherDisplay:10.37,2013-12-08 16:10:00,
2013-12-08 11:20:00,41.0,30.5,28.15,NNE,22,3.0,3.0,66,0.00,CLR,,0.00,WeatherDisplay:10.37,2013-12-08 16:20:00,
2013-12-08 11:30:00,40.5,28.1,28.15,NNE,22,3.0,3.0,61,0.00,CLR,,0.00,WeatherDisplay:10.37,2013-12-08 16:30:00,
2013-12-08 11:40:00,40.8,29.2,28.15,NNE,22,3.0,3.0,63,0.00,CLR,,0.00,WeatherDisplay:10.37,2013-12-08 16:40:00,
2013-12-08 11:50:00,41.7,30.8,28.15,NNE,22,3.0,3.0,65,0.00,CLR,,0.00,WeatherDisplay:10.37,2013-12-08 16:50:00,
2013-12-08 12:00:00,42.0,28.7,28.15,NNE,22,3.0,3.0,59,0.00,CLR,,0.00,WeatherDisplay:10.37,2013-12-08 17:00:00,
2013-12-08 12:10:00,42.4,29.1,28.12,NNE,22,3.0,3.0,59,0.00,CLR,,0.00,WeatherDisplay:10.37,2013-12-08 17:10:00,
2013-12-08 12:20:00,42.8,28.2,28.12,NNE,22,3.0,3.0,56,0.00,CLR,,0.00,WeatherDisplay:10.37,2013-12-08 17:20:00,
2013-12-08 12:30:00,42.7,28.1,28.12,NNE,22,3.0,3.0,56,0.00,CLR,,0.00,WeatherDisplay:10.37,2013-12-08 17:30:00,
2013-12-08 12:40:00,43.0,28.8,28.15,NNE,22,3.0,3.0,57,0.00,CLR,,0.00,WeatherDisplay:10.37,2013-12-08 17:40:00,
2013-12-08 12:50:00,42.8,28.2,28.15,NNE,22,3.0,3.0,56,0.00,CLR,,0.00,WeatherDisplay:10.37,2013-12-08 17:50:00,
2013-12-08 13:00:00,42.8,27.7,28.15,NNE,22,3.0,3.0,55,0.00,CLR,,0.00,WeatherDisplay:10.37,2013-12-08 18:00:00,
2013-12-08 13:10:00,42.4,27.4,28.12,NNE,22,3.0,3.0,55,0.00,CLR,,0.00,WeatherDisplay:10.37,2013-12-08 18:10:00,
2013-12-08 13:20:00,42.3,27.7,28.12,NNE,22,3.0,3.0,56,0.00,CLR,,0.00,WeatherDisplay:10.37,2013-12-08 18:20:00,
2013-12-08 13:30:00,42.3,28.5,28.12,NNE,22,3.0,3.0,58,0.00,CLR,,0.00,WeatherDisplay:10.37,2013-12-08 18:30:00,
2013-12-08 13:40:00,42.3,28.1,28.12,NNE,22,3.0,3.0,57,0.00,CLR,,0.00,WeatherDisplay:10.37,2013-12-08 18:40:00,
2013-12-08 13:50:00,42.4,28.3,28.12,NNE,22,3.0,3.0,57,0.00,CLR,,0.00,WeatherDisplay:10.37,2013-12-08 18:50:00,
2013-12-08 14:00:00,42.3,28.1,28.12,NNE,22,3.0,3.0,57,0.00,CLR,,0.00,WeatherDisplay:10.37,2013-12-08 19:00:00,
2013-12-08 14:10:00,42.1,27.5,28.12,NNE,22,3.0,3.0,56,0.00,CLR,,0.00,WeatherDisplay:10.37,2013-12-08 19:10:00,
2013-12-08 14:20:00,41.7,27.6,28.12,NNE,22,3.0,3.0,57,0.00,CLR,,0.00,WeatherDisplay:10.37,2013-12-08 19:20:00,
2013-12-08 14:30:00,41.4,27.3,28.12,NNE,22,3.0,3.0,57,0.00,CLR,,0.00,WeatherDisplay:10.37,2013-12-08 19:30:00,
2013-12-08 14:40:00,40.2,29.0,28.12,NNE,22,3.0,3.0,64,0.00,CLR,,0.00,WeatherDisplay:10.37,2013-12-08 19:40:00,
2013-12-08 14:50:00,39.7,30.4,28.12,NNE,22,3.0,3.0,69,0.00,CLR,,0.00,WeatherDisplay:10.37,2013-12-08 19:50:00,
2013-12-08 15:00:00,39.4,32.1,28.09,NNE,22,3.0,3.0,75,0.00,CLR,,0.00,WeatherDisplay:10.37,2013-12-08 20:00:00,
2013-12-08 15:10:00,39.2,32.9,28.09,NNE,22,3.0,3.0,78,0.00,CLR,,0.00,WeatherDisplay:10.37,2013-12-08 20:10:00,
2013-12-08 15:20:00,39.0,33.1,28.09,NNE,22,3.0,3.0,79,0.00,CLR,,0.00,WeatherDisplay:10.37,2013-12-08 20:20:00,
2013-12-08 15:30:00,38.8,32.9,28.12,NNE,22,3.0,3.0,79,0.00,CLR,,0.00,WeatherDisplay:10.37,2013-12-08 20:30:00,
2013-12-08 15:40:00,38.7,33.0,28.09,NNE,22,3.0,3.0,80,0.00,CLR,,0.00,WeatherDisplay:10.37,2013-12-08 20:40:00,
2013-12-08 15:50:00,38.8,33.8,28.09,NNE,22,3.0,3.0,82,0.00,CLR,,0.00,WeatherDisplay:10.37,2013-12-08 20:50:00,
2013-12-08 16:00:00,38.7,33.6,28.09,NNE,22,3.0,3.0,82,0.00,CLR,,0.00,WeatherDisplay:10.37,2013-12-08 21:00:00,
2013-12-08 16:10:00,38.7,33.9,28.12,NNE,22,3.0,3.0,83,0.00,CLR,,0.00,WeatherDisplay:10.37,2013-12-08 21:10:00,
2013-12-08 16:20:00,38.5,33.5,28.12,NNE,22,3.0,3.0,82,0.00,CLR,,0.00,WeatherDisplay:10.37,2013-12-08 21:20:00,
2013-12-08 16:30:00,38.5,33.5,28.12,NNE,22,3.0,3.0,82,0.00,CLR,,0.00,WeatherDisplay:10.37,2013-12-08 21:30:00,
2013-12-08 16:40:00,38.5,33.8,28.12,NNE,22,3.0,3.0,83,0.00,CLR,,0.00,WeatherDisplay:10.37,2013-12-08 21:40:00,
2013-12-08 16:50:00,38.5,34.1,28.12,NNE,22,3.0,3.0,84,0.00,CLR,,0.00,WeatherDisplay:10.37,2013-12-08 21:50:00,
2013-12-08 17:00:00,38.3,34.2,28.12,NNE,22,3.0,3.0,85,0.00,CLR,,0.00,WeatherDisplay:10.37,2013-12-08 22:00:00,
2013-12-08 17:10:00,38.1,34.6,28.12,NNE,22,3.0,3.0,87,0.00,CLR,,0.00,WeatherDisplay:10.37,2013-12-08 22:10:00,
2013-12-08 17:20:00,38.1,34.6,28.12,NNE,22,3.0,3.0,87,0.00,CLR,,0.00,WeatherDisplay:10.37,2013-12-08 22:20:00,
2013-12-08 17:30:00,38.1,34.9,28.12,NNE,22,3.0,3.0,88,0.00,CLR,,0.00,WeatherDisplay:10.37,2013-12-08 22:30:00,
2013-12-08 17:40:00,37.9,35.0,28.12,NNE,22,3.0,3.0,89,0.00,CLR,,0.00,WeatherDisplay:10.37,2013-12-08 22:40:00,
2013-12-08 17:50:00,37.9,35.3,28.12,NNE,22,3.0,3.0,90,0.00,CLR,,0.00,WeatherDisplay:10.37,2013-12-08 22:50:00,
2013-12-08 18:00:00,37.9,35.5,28.12,NNE,22,3.0,3.0,91,0.00,CLR,,0.00,WeatherDisplay:10.37,2013-12-08 23:00:00,
2013-12-08 18:10:00,37.8,35.6,28.12,NNE,22,3.0,3.0,92,0.00,CLR,,0.00,WeatherDisplay:10.37,2013-12-08 23:10:00,
2013-12-08 18:20:00,37.8,35.6,28.12,NNE,22,3.0,3.0,92,0.00,CLR,,0.00,WeatherDisplay:10.37,2013-12-08 23:20:00,
2013-12-08 18:30:00,37.9,36.1,28.12,NNE,22,3.0,3.0,93,0.00,CLR,,0.00,WeatherDisplay:10.37,2013-12-08 23:30:00,
2013-12-08 18:40:00,38.1,36.3,28.15,NNE,22,3.0,3.0,93,0.00,CLR,,0.00,WeatherDisplay:10.37,2013-12-08 23:40:00,
2013-12-08 18:50:00,37.9,36.4,28.15,NNE,22,3.0,3.0,94,0.00,CLR,,0.00,WeatherDisplay:10.37,2013-12-08 23:50:00,
2013-12-08 19:00:00,38.1,36.5,28.15,NNE,22,3.0,3.0,94,0.00,CLR,,0.00,WeatherDisplay:10.37,2013-12-09 00:00:00,
2013-12-08 19:10:00,37.9,36.1,28.12,NNE,22,3.0,3.0,93,0.00,CLR,,0.00,WeatherDisplay:10.37,2013-12-09 00:10:00,
2013-12-08 19:20:00,37.6,35.7,28.12,NNE,22,3.0,3.0,93,0.00,CLR,,0.00,WeatherDisplay:10.37,2013-12-09 00:20:00,
2013-12-08 19:30:00,37.6,36.0,28.12,NNE,22,3.0,3.0,94,0.00,CLR,,0.00,WeatherDisplay:10.37,2013-12-09 00:30:00,
2013-12-08 19:40:00,37.6,36.0,28.12,NNE,22,3.0,3.0,94,0.00,CLR,,0.00,WeatherDisplay:10.37,2013-12-09 00:40:00,
2013-12-08 19:50:00,37.6,36.0,28.12,NNE,22,3.0,3.0,94,0.00,CLR,,0.00,WeatherDisplay:10.37,2013-12-09 00:50:00,
2013-12-08 20:00:00,37.8,36.5,28.12,NNE,22,3.0,3.0,95,0.00,CLR,,0.00,WeatherDisplay:10.37,2013-12-09 01:00:00,
2013-12-08 20:10:00,37.8,36.7,28.12,NNE,22,3.0,3.0,96,0.00,CLR,,0.00,WeatherDisplay:10.37,2013-12-09 01:10:00,
2013-12-08 20:20:00,37.8,36.7,28.12,NNE,22,3.0,3.0,96,0.00,CLR,,0.00,WeatherDisplay:10.37,2013-12-09 01:20:00,
2013-12-08 20:30:00,37.9,37.2,28.12,NNE,22,3.0,3.0,97,0.00,CLR,,0.00,WeatherDisplay:10.37,2013-12-09 01:30:00,
2013-12-08 20:40:00,37.9,37.2,28.12,NNE,22,3.0,3.0,97,0.00,CLR,,0.00,WeatherDisplay:10.37,2013-12-09 01:40:00,
2013-12-08 20:50:00,37.9,37.2,28.12,NNE,22,3.0,3.0,97,0.00,CLR,,0.00,WeatherDisplay:10.37,2013-12-09 01:50:00,
2013-12-08 21:00:00,37.9,37.2,28.12,NNE,22,3.0,3.0,97,0.00,CLR,,0.00,WeatherDisplay:10.37,2013-12-09 02:00:00,
2013-12-08 21:10:00,37.9,37.2,28.12,NNE,22,3.0,3.0,97,0.00,CLR,,0.00,WeatherDisplay:10.37,2013-12-09 02:10:00,
2013-12-08 21:20:00,38.1,38.1,28.12,NNE,22,3.0,3.0,100,0.00,,,0.00,WeatherDisplay:10.37,2013-12-09 02:20:00,
2013-12-08 21:30:00,38.1,38.1,28.15,NNE,22,3.0,3.0,100,0.00,,,0.00,WeatherDisplay:10.37,2013-12-09 02:30:00,
2013-12-08 21:40:00,38.1,38.1,28.12,NNE,22,3.0,3.0,100,0.00,,,0.00,WeatherDisplay:10.37,2013-12-09 02:40:00,
2013-12-08 21:50:00,38.3,38.3,28.12,NNE,22,3.0,3.0,100,0.00,,,0.00,WeatherDisplay:10.37,2013-12-09 02:50:00,
2013-12-08 22:00:00,38.3,38.3,28.12,NNE,22,3.0,3.0,100,0.00,,,0.00,WeatherDisplay:10.37,2013-12-09 03:00:00,
2013-12-08 22:10:00,38.5,38.5,28.09,NNE,22,3.0,3.0,100,0.00,,,0.00,WeatherDisplay:10.37,2013-12-09 03:10:00,
2013-12-08 22:20:00,38.5,38.5,28.09,NNE,22,3.0,3.0,100,0.00,,,0.00,WeatherDisplay:10.37,2013-12-09 03:20:00,
2013-12-08 22:30:00,38.7,38.7,28.12,NNE,22,3.0,3.0,100,0.00,,,0.00,WeatherDisplay:10.37,2013-12-09 03:30:00,
2013-12-08 22:40:00,38.8,38.8,28.09,NNE,22,3.0,3.0,100,0.00,,,0.00,WeatherDisplay:10.37,2013-12-09 03:40:00,
2013-12-08 22:50:00,38.8,38.8,28.09,NNE,22,3.0,3.0,100,0.00,,,0.00,WeatherDisplay:10.37,2013-12-09 03:50:00,
2013-12-08 23:00:00,39.0,39.0,28.09,NNE,22,3.0,3.0,100,0.00,,,0.00,WeatherDisplay:10.37,2013-12-09 04:00:00,
2013-12-08 23:10:00,39.2,39.2,28.07,NNE,22,3.0,3.0,100,0.00,,,0.00,WeatherDisplay:10.37,2013-12-09 04:10:00,
2013-12-08 23:20:00,39.2,39.2,28.07,NNE,22,3.0,3.0,100,0.00,,,0.00,WeatherDisplay:10.37,2013-12-09 04:20:00,
2013-12-08 23:30:00,39.2,39.2,28.07,NNE,22,3.0,3.0,100,0.00,,,0.00,WeatherDisplay:10.37,2013-12-09 04:30:00,
2013-12-08 23:40:00,39.2,39.2,28.07,NNE,22,3.0,3.0,100,0.00,,,0.00,WeatherDisplay:10.37,2013-12-09 04:40:00,
2013-12-08 23:50:00,39.4,39.4,28.07,NNE,22,3.0,3.0,100,0.00,,,0.00,WeatherDisplay:10.37,2013-12-09 04:50:00,